sensor_id;sensor_type;location;lat;lon;timestamp;pressure;altitude;pressure_sealevel;temperature;humidity
27014;BME280;14556;52.222;4.510;2022-08-19T00:01:35;101249.03;;;17.59;100.00
27014;BME280;14556;52.222;4.510;2022-08-19T00:04:06;101261.97;;;17.57;100.00
27014;BME280;14556;52.222;4.510;2022-08-19T00:06:34;101257.50;;;17.50;100.00
27014;BME280;14556;52.222;4.510;2022-08-19T00:09:03;101263.63;;;17.58;100.00
27014;BME280;14556;52.222;4.510;2022-08-19T00:11:30;101260.56;;;17.54;100.00
27014;BME280;14556;52.222;4.510;2022-08-19T00:13:57;101262.44;;;17.54;100.00
27014;BME280;14556;52.222;4.510;2022-08-19T00:16:24;101262.81;;;17.57;100.00
27014;BME280;14556;52.222;4.510;2022-08-19T00:18:53;101255.41;;;17.52;100.00
27014;BME280;14556;52.222;4.510;2022-08-19T00:21:25;101251.38;;;17.43;100.00
27014;BME280;14556;52.222;4.510;2022-08-19T00:23:54;101251.75;;;17.35;100.00
27014;BME280;14556;52.222;4.510;2022-08-19T00:26:25;101251.16;;;17.33;100.00
27014;BME280;14556;52.222;4.510;2022-08-19T00:28:51;101265.03;;;17.24;100.00
27014;BME280;14556;52.222;4.510;2022-08-19T00:31:18;101266.06;;;17.23;100.00
27014;BME280;14556;52.222;4.510;2022-08-19T00:33:44;101255.38;;;17.28;100.00
27014;BME280;14556;52.222;4.510;2022-08-19T00:36:11;101264.56;;;17.27;100.00
27014;BME280;14556;52.222;4.510;2022-08-19T00:38:38;101262.44;;;17.30;100.00
27014;BME280;14556;52.222;4.510;2022-08-19T00:41:14;101236.31;;;17.11;100.00
27014;BME280;14556;52.222;4.510;2022-08-19T00:43:41;101275.97;;;17.30;100.00
27014;BME280;14556;52.222;4.510;2022-08-19T00:46:08;101277.25;;;17.27;100.00
27014;BME280;14556;52.222;4.510;2022-08-19T00:48:35;101276.19;;;17.28;100.00
27014;BME280;14556;52.222;4.510;2022-08-19T00:51:04;101256.19;;;17.17;100.00
27014;BME280;14556;52.222;4.510;2022-08-19T00:53:31;101267.50;;;17.26;100.00
27014;BME280;14556;52.222;4.510;2022-08-19T00:55:59;101246.44;;;17.16;100.00
27014;BME280;14556;52.222;4.510;2022-08-19T00:58:30;101267.13;;;17.22;100.00
27014;BME280;14556;52.222;4.510;2022-08-19T01:00:59;101255.50;;;17.22;100.00
27014;BME280;14556;52.222;4.510;2022-08-19T01:03:27;101255.38;;;17.16;100.00
27014;BME280;14556;52.222;4.510;2022-08-19T01:05:54;101258.38;;;17.08;100.00
27014;BME280;14556;52.222;4.510;2022-08-19T01:08:22;101256.13;;;16.93;100.00
27014;BME280;14556;52.222;4.510;2022-08-19T01:10:52;101246.34;;;16.80;100.00
27014;BME280;14556;52.222;4.510;2022-08-19T01:13:22;101264.78;;;16.83;100.00
27014;BME280;14556;52.222;4.510;2022-08-19T01:16:08;101272.19;;;16.76;100.00
27014;BME280;14556;52.222;4.510;2022-08-19T01:18:39;101264.88;;;16.76;100.00
27014;BME280;14556;52.222;4.510;2022-08-19T01:21:31;101265.59;;;16.72;100.00
27014;BME280;14556;52.222;4.510;2022-08-19T01:23:58;101275.69;;;16.76;100.00
27014;BME280;14556;52.222;4.510;2022-08-19T01:26:26;101287.81;;;16.86;100.00
27014;BME280;14556;52.222;4.510;2022-08-19T01:28:55;101252.31;;;16.70;100.00
27014;BME280;14556;52.222;4.510;2022-08-19T01:31:28;101283.59;;;16.90;100.00
27014;BME280;14556;52.222;4.510;2022-08-19T01:34:00;101272.44;;;16.86;100.00
27014;BME280;14556;52.222;4.510;2022-08-19T01:36:31;101281.19;;;17.00;100.00
27014;BME280;14556;52.222;4.510;2022-08-19T01:39:00;101266.59;;;17.01;100.00
27014;BME280;14556;52.222;4.510;2022-08-19T01:41:28;101273.63;;;17.02;100.00
27014;BME280;14556;52.222;4.510;2022-08-19T01:43:54;101268.22;;;17.02;100.00
27014;BME280;14556;52.222;4.510;2022-08-19T01:46:42;101269.91;;;17.03;100.00
27014;BME280;14556;52.222;4.510;2022-08-19T01:49:09;101264.13;;;17.00;100.00
27014;BME280;14556;52.222;4.510;2022-08-19T01:51:37;101282.44;;;16.98;100.00
27014;BME280;14556;52.222;4.510;2022-08-19T01:54:06;101276.69;;;16.94;100.00
27014;BME280;14556;52.222;4.510;2022-08-19T01:56:33;101283.38;;;16.91;100.00
27014;BME280;14556;52.222;4.510;2022-08-19T01:59:06;101287.97;;;16.91;100.00
27014;BME280;14556;52.222;4.510;2022-08-19T02:01:35;101278.06;;;16.85;100.00
27014;BME280;14556;52.222;4.510;2022-08-19T02:04:02;101276.41;;;16.84;100.00
27014;BME280;14556;52.222;4.510;2022-08-19T02:06:29;101271.84;;;16.84;100.00
27014;BME280;14556;52.222;4.510;2022-08-19T02:08:56;101271.84;;;16.84;100.00
27014;BME280;14556;52.222;4.510;2022-08-19T02:11:28;101273.84;;;16.89;100.00
27014;BME280;14556;52.222;4.510;2022-08-19T02:13:58;101269.88;;;16.91;100.00
27014;BME280;14556;52.222;4.510;2022-08-19T02:16:24;101267.75;;;16.94;100.00
27014;BME280;14556;52.222;4.510;2022-08-19T02:18:51;101264.47;;;16.91;100.00
27014;BME280;14556;52.222;4.510;2022-08-19T02:21:19;101268.69;;;16.87;100.00
27014;BME280;14556;52.222;4.510;2022-08-19T02:23:46;101266.81;;;16.88;100.00
27014;BME280;14556;52.222;4.510;2022-08-19T02:26:13;101265.75;;;16.89;100.00
27014;BME280;14556;52.222;4.510;2022-08-19T02:28:41;101258.94;;;16.86;100.00
27014;BME280;14556;52.222;4.510;2022-08-19T02:31:14;101259.28;;;16.90;100.00
27014;BME280;14556;52.222;4.510;2022-08-19T02:33:41;101255.53;;;16.91;100.00
27014;BME280;14556;52.222;4.510;2022-08-19T02:36:08;101267.97;;;16.92;100.00
27014;BME280;14556;52.222;4.510;2022-08-19T02:38:35;101270.44;;;16.94;100.00
27014;BME280;14556;52.222;4.510;2022-08-19T02:41:11;101234.69;;;16.79;100.00
27014;BME280;14556;52.222;4.510;2022-08-19T02:43:38;101272.38;;;17.05;100.00
27014;BME280;14556;52.222;4.510;2022-08-19T02:46:28;101267.31;;;17.09;100.00
27014;BME280;14556;52.222;4.510;2022-08-19T02:48:59;101258.19;;;17.10;100.00
27014;BME280;14556;52.222;4.510;2022-08-19T02:51:37;101252.53;;;17.11;100.00
27014;BME280;14556;52.222;4.510;2022-08-19T02:54:05;101261.47;;;17.12;100.00
27014;BME280;14556;52.222;4.510;2022-08-19T02:56:35;101255.25;;;17.11;100.00
27014;BME280;14556;52.222;4.510;2022-08-19T02:59:03;101238.88;;;17.06;100.00
27014;BME280;14556;52.222;4.510;2022-08-19T03:01:38;101232.88;;;17.04;100.00
27014;BME280;14556;52.222;4.510;2022-08-19T03:04:08;101228.75;;;17.01;100.00
27014;BME280;14556;52.222;4.510;2022-08-19T03:06:40;101228.75;;;17.01;100.00
27014;BME280;14556;52.222;4.510;2022-08-19T03:09:08;101223.72;;;17.05;100.00
27014;BME280;14556;52.222;4.510;2022-08-19T03:11:35;101234.69;;;17.10;100.00
27014;BME280;14556;52.222;4.510;2022-08-19T03:14:03;101216.94;;;17.14;100.00
27014;BME280;14556;52.222;4.510;2022-08-19T03:16:33;101226.34;;;17.24;100.00
27014;BME280;14556;52.222;4.510;2022-08-19T03:19:01;101219.53;;;17.33;100.00
27014;BME280;14556;52.222;4.510;2022-08-19T03:21:31;101222.38;;;17.38;100.00
27014;BME280;14556;52.222;4.510;2022-08-19T03:24:04;101212.81;;;17.36;100.00
27014;BME280;14556;52.222;4.510;2022-08-19T03:26:31;101221.66;;;17.43;100.00
27014;BME280;14556;52.222;4.510;2022-08-19T03:28:57;101227.06;;;17.43;100.00
27014;BME280;14556;52.222;4.510;2022-08-19T03:31:30;101222.25;;;17.45;100.00
27014;BME280;14556;52.222;4.510;2022-08-19T03:34:23;101222.59;;;17.49;100.00
27014;BME280;14556;52.222;4.510;2022-08-19T03:36:58;101212.72;;;17.55;100.00
27014;BME280;14556;52.222;4.510;2022-08-19T03:39:25;101213.63;;;17.60;100.00
27014;BME280;14556;52.222;4.510;2022-08-19T03:41:53;101205.88;;;17.64;100.00
27014;BME280;14556;52.222;4.510;2022-08-19T03:44:43;101219.97;;;17.66;100.00
27014;BME280;14556;52.222;4.510;2022-08-19T03:47:11;101214.56;;;17.66;100.00
27014;BME280;14556;52.222;4.510;2022-08-19T03:49:42;101218.47;;;17.70;100.00
27014;BME280;14556;52.222;4.510;2022-08-19T03:52:09;101219.16;;;17.66;100.00
27014;BME280;14556;52.222;4.510;2022-08-19T03:54:35;101207.53;;;17.65;100.00
27014;BME280;14556;52.222;4.510;2022-08-19T03:57:02;101203.28;;;17.69;100.00
27014;BME280;14556;52.222;4.510;2022-08-19T03:59:33;101210.69;;;17.62;100.00
27014;BME280;14556;52.222;4.510;2022-08-19T04:02:02;101227.63;;;17.69;100.00
27014;BME280;14556;52.222;4.510;2022-08-19T04:04:29;101224.81;;;17.64;100.00
27014;BME280;14556;52.222;4.510;2022-08-19T04:06:57;101221.75;;;17.60;100.00
27014;BME280;14556;52.222;4.510;2022-08-19T04:09:24;101221.28;;;17.63;100.00
27014;BME280;14556;52.222;4.510;2022-08-19T04:11:54;101225.19;;;17.56;100.00
27014;BME280;14556;52.222;4.510;2022-08-19T04:14:23;101227.41;;;17.47;100.00
27014;BME280;14556;52.222;4.510;2022-08-19T04:16:51;101225.19;;;17.44;100.00
27014;BME280;14556;52.222;4.510;2022-08-19T04:19:19;101230.94;;;17.47;100.00
27014;BME280;14556;52.222;4.510;2022-08-19T04:21:48;101242.13;;;17.51;100.00
27014;BME280;14556;52.222;4.510;2022-08-19T04:24:15;101233.41;;;17.49;100.00
27014;BME280;14556;52.222;4.510;2022-08-19T04:26:43;101239.66;;;17.49;100.00
27014;BME280;14556;52.222;4.510;2022-08-19T04:29:14;101234.13;;;17.56;100.00
27014;BME280;14556;52.222;4.510;2022-08-19T04:31:42;101237.38;;;17.58;100.00
27014;BME280;14556;52.222;4.510;2022-08-19T04:34:11;101234.00;;;17.63;100.00
27014;BME280;14556;52.222;4.510;2022-08-19T04:36:39;101216.47;;;17.54;100.00
27014;BME280;14556;52.222;4.510;2022-08-19T04:39:13;101194.47;;;17.50;100.00
27014;BME280;14556;52.222;4.510;2022-08-19T04:41:40;101227.97;;;17.73;100.00
27014;BME280;14556;52.222;4.510;2022-08-19T04:44:25;101221.94;;;17.83;100.00
27014;BME280;14556;52.222;4.510;2022-08-19T04:46:52;101228.41;;;17.94;100.00
27014;BME280;14556;52.222;4.510;2022-08-19T04:49:20;101223.22;;;17.92;100.00
27014;BME280;14556;52.222;4.510;2022-08-19T04:51:49;101229.38;;;17.87;100.00
27014;BME280;14556;52.222;4.510;2022-08-19T04:54:18;101224.44;;;17.84;100.00
27014;BME280;14556;52.222;4.510;2022-08-19T04:57:06;101232.22;;;17.81;100.00
27014;BME280;14556;52.222;4.510;2022-08-19T04:59:33;101236.41;;;17.88;100.00
27014;BME280;14556;52.222;4.510;2022-08-19T05:02:02;101230.75;;;17.90;100.00
27014;BME280;14556;52.222;4.510;2022-08-19T05:04:29;101239.13;;;17.88;100.00
27014;BME280;14556;52.222;4.510;2022-08-19T05:06:59;101237.25;;;17.89;100.00
27014;BME280;14556;52.222;4.510;2022-08-19T05:09:28;101237.25;;;17.89;100.00
27014;BME280;14556;52.222;4.510;2022-08-19T05:12:15;101241.59;;;17.90;100.00
27014;BME280;14556;52.222;4.510;2022-08-19T05:14:42;101236.03;;;17.97;100.00
27014;BME280;14556;52.222;4.510;2022-08-19T05:17:09;101235.81;;;17.86;100.00
27014;BME280;14556;52.222;4.510;2022-08-19T05:19:56;101252.41;;;17.90;100.00
27014;BME280;14556;52.222;4.510;2022-08-19T05:22:42;101248.53;;;17.98;100.00
27014;BME280;14556;52.222;4.510;2022-08-19T05:25:13;101229.38;;;17.87;100.00
27014;BME280;14556;52.222;4.510;2022-08-19T05:27:41;101238.63;;;18.04;100.00
27014;BME280;14556;52.222;4.510;2022-08-19T05:30:10;101244.50;;;18.00;100.00
27014;BME280;14556;52.222;4.510;2022-08-19T05:32:37;101242.72;;;18.06;100.00
27014;BME280;14556;52.222;4.510;2022-08-19T05:35:05;101240.97;;;18.12;100.00
27014;BME280;14556;52.222;4.510;2022-08-19T05:37:32;101236.81;;;18.09;100.00
27014;BME280;14556;52.222;4.510;2022-08-19T05:39:59;101232.00;;;18.11;100.00
27014;BME280;14556;52.222;4.510;2022-08-19T05:42:26;101230.50;;;18.16;100.00
27014;BME280;14556;52.222;4.510;2022-08-19T05:44:52;101226.72;;;18.17;100.00
27014;BME280;14556;52.222;4.510;2022-08-19T05:47:19;101229.53;;;18.22;100.00
27014;BME280;14556;52.222;4.510;2022-08-19T05:49:47;101226.09;;;18.27;100.00
27014;BME280;14556;52.222;4.510;2022-08-19T05:52:15;101231.75;;;18.25;100.00
27014;BME280;14556;52.222;4.510;2022-08-19T05:54:45;101229.28;;;18.23;100.00
27014;BME280;14556;52.222;4.510;2022-08-19T05:57:20;101230.47;;;18.28;100.00
27014;BME280;14556;52.222;4.510;2022-08-19T05:59:46;101228.44;;;18.35;100.00
27014;BME280;14556;52.222;4.510;2022-08-19T06:02:18;101234.84;;;18.46;100.00
27014;BME280;14556;52.222;4.510;2022-08-19T06:04:44;101231.78;;;18.42;100.00
27014;BME280;14556;52.222;4.510;2022-08-19T06:07:11;101236.50;;;18.47;100.00
27014;BME280;14556;52.222;4.510;2022-08-19T06:09:39;101245.66;;;18.58;100.00
27014;BME280;14556;52.222;4.510;2022-08-19T06:12:06;101242.09;;;18.57;100.00
27014;BME280;14556;52.222;4.510;2022-08-19T06:14:34;101216.72;;;18.46;100.00
27014;BME280;14556;52.222;4.510;2022-08-19T06:17:06;101228.91;;;18.61;100.00
27014;BME280;14556;52.222;4.510;2022-08-19T06:19:33;101232.28;;;18.68;100.00
27014;BME280;14556;52.222;4.510;2022-08-19T06:22:06;101236.13;;;18.72;100.00
27014;BME280;14556;52.222;4.510;2022-08-19T06:24:33;101237.22;;;18.71;100.00
27014;BME280;14556;52.222;4.510;2022-08-19T06:27:01;101243.22;;;18.73;100.00
27014;BME280;14556;52.222;4.510;2022-08-19T06:29:28;101240.59;;;18.79;100.00
27014;BME280;14556;52.222;4.510;2022-08-19T06:31:58;101237.38;;;18.82;100.00
27014;BME280;14556;52.222;4.510;2022-08-19T06:34:27;101244.03;;;18.91;100.00
27014;BME280;14556;52.222;4.510;2022-08-19T06:36:55;101237.06;;;18.95;100.00
27014;BME280;14556;52.222;4.510;2022-08-19T06:39:24;101237.56;;;18.92;100.00
27014;BME280;14556;52.222;4.510;2022-08-19T06:41:54;101233.75;;;18.93;100.00
27014;BME280;14556;52.222;4.510;2022-08-19T06:44:26;101242.31;;;19.02;100.00
27014;BME280;14556;52.222;4.510;2022-08-19T06:46:55;101237.72;;;19.03;100.00
27014;BME280;14556;52.222;4.510;2022-08-19T06:49:22;101229.59;;;19.03;100.00
27014;BME280;14556;52.222;4.510;2022-08-19T06:51:49;101230.84;;;19.12;100.00
27014;BME280;14556;52.222;4.510;2022-08-19T06:54:18;101236.84;;;19.14;100.00
27014;BME280;14556;52.222;4.510;2022-08-19T06:56:45;101237.75;;;19.20;100.00
27014;BME280;14556;52.222;4.510;2022-08-19T06:59:17;101238.06;;;19.24;100.00
27014;BME280;14556;52.222;4.510;2022-08-19T07:01:50;101234.13;;;19.31;100.00
27014;BME280;14556;52.222;4.510;2022-08-19T07:04:20;101233.31;;;19.31;100.00
27014;BME280;14556;52.222;4.510;2022-08-19T07:06:48;101233.97;;;19.38;100.00
27014;BME280;14556;52.222;4.510;2022-08-19T07:09:21;101237.78;;;19.42;100.00
27014;BME280;14556;52.222;4.510;2022-08-19T07:11:49;101240.31;;;19.49;100.00
27014;BME280;14556;52.222;4.510;2022-08-19T07:14:18;101216.16;;;19.48;100.00
27014;BME280;14556;52.222;4.510;2022-08-19T07:16:47;101249.59;;;19.71;100.00
27014;BME280;14556;52.222;4.510;2022-08-19T07:19:15;101249.00;;;19.68;100.00
27014;BME280;14556;52.222;4.510;2022-08-19T07:21:46;101256.09;;;19.69;100.00
27014;BME280;14556;52.222;4.510;2022-08-19T07:24:12;101256.09;;;19.69;100.00
27014;BME280;14556;52.222;4.510;2022-08-19T07:26:41;101261.53;;;19.69;100.00
27014;BME280;14556;52.222;4.510;2022-08-19T07:29:09;101267.84;;;19.75;100.00
27014;BME280;14556;52.222;4.510;2022-08-19T07:31:36;101263.72;;;19.73;100.00
27014;BME280;14556;52.222;4.510;2022-08-19T07:34:05;101267.34;;;19.78;100.00
27014;BME280;14556;52.222;4.510;2022-08-19T07:36:37;101271.44;;;19.81;100.00
27014;BME280;14556;52.222;4.510;2022-08-19T07:39:10;101266.00;;;19.81;100.00
27014;BME280;14556;52.222;4.510;2022-08-19T07:41:37;101263.41;;;19.91;100.00
27014;BME280;14556;52.222;4.510;2022-08-19T07:44:05;101263.03;;;19.83;100.00
27014;BME280;14556;52.222;4.510;2022-08-19T07:46:36;101272.59;;;19.85;100.00
27014;BME280;14556;52.222;4.510;2022-08-19T07:49:05;101264.75;;;19.89;100.00
27014;BME280;14556;52.222;4.510;2022-08-19T07:51:34;101265.56;;;19.89;100.00
27014;BME280;14556;52.222;4.510;2022-08-19T07:54:03;101270.56;;;19.98;100.00
27014;BME280;14556;52.222;4.510;2022-08-19T07:56:29;101266.19;;;19.97;100.00
27014;BME280;14556;52.222;4.510;2022-08-19T07:58:55;101267.34;;;20.01;100.00
27014;BME280;14556;52.222;4.510;2022-08-19T08:01:27;101261.19;;;20.05;100.00
27014;BME280;14556;52.222;4.510;2022-08-19T08:03:56;101258.13;;;20.02;100.00
27014;BME280;14556;52.222;4.510;2022-08-19T08:06:41;101264.47;;;20.08;100.00
27014;BME280;14556;52.222;4.510;2022-08-19T08:09:32;101272.34;;;20.09;100.00
27014;BME280;14556;52.222;4.510;2022-08-19T08:12:04;101275.91;;;20.10;100.00
27014;BME280;14556;52.222;4.510;2022-08-19T08:14:59;101282.22;;;20.15;100.00
27014;BME280;14556;52.222;4.510;2022-08-19T08:17:33;101286.81;;;20.15;100.00
27014;BME280;14556;52.222;4.510;2022-08-19T08:20:17;101279.75;;;20.14;100.00
27014;BME280;14556;52.222;4.510;2022-08-19T08:22:45;101290.69;;;20.19;100.00
27014;BME280;14556;52.222;4.510;2022-08-19T08:25:31;101293.94;;;20.21;100.00
27014;BME280;14556;52.222;4.510;2022-08-19T08:28:01;101290.50;;;20.26;100.00
27014;BME280;14556;52.222;4.510;2022-08-19T08:30:29;101300.41;;;20.37;100.00
27014;BME280;14556;52.222;4.510;2022-08-19T08:32:58;101294.00;;;20.49;100.00
27014;BME280;14556;52.222;4.510;2022-08-19T08:35:28;101287.84;;;20.59;100.00
27014;BME280;14556;52.222;4.510;2022-08-19T08:37:54;101294.22;;;20.70;100.00
27014;BME280;14556;52.222;4.510;2022-08-19T08:46:04;101296.69;;;20.71;100.00
27014;BME280;14556;52.222;4.510;2022-08-19T08:48:39;101295.84;;;20.71;100.00
27014;BME280;14556;52.222;4.510;2022-08-19T08:51:15;101282.31;;;20.76;100.00
27014;BME280;14556;52.222;4.510;2022-08-19T08:53:46;101299.16;;;21.00;100.00
27014;BME280;14556;52.222;4.510;2022-08-19T08:56:15;101294.66;;;21.17;100.00
27014;BME280;14556;52.222;4.510;2022-08-19T08:59:04;101304.19;;;21.19;100.00
27014;BME280;14556;52.222;4.510;2022-08-19T09:01:36;101301.44;;;21.14;100.00
27014;BME280;14556;52.222;4.510;2022-08-19T09:04:05;101292.97;;;21.10;100.00
27014;BME280;14556;52.222;4.510;2022-08-19T09:10:02;101297.13;;;21.18;100.00
27014;BME280;14556;52.222;4.510;2022-08-19T09:12:38;101310.06;;;21.38;100.00
27014;BME280;14556;52.222;4.510;2022-08-19T09:15:11;101307.78;;;21.63;100.00
27014;BME280;14556;52.222;4.510;2022-08-19T09:17:38;101308.53;;;21.96;100.00
27014;BME280;14556;52.222;4.510;2022-08-19T09:22:38;101304.53;;;22.15;100.00
27014;BME280;14556;52.222;4.510;2022-08-19T09:25:08;101306.44;;;22.14;100.00
27014;BME280;14556;52.222;4.510;2022-08-19T09:27:37;101297.94;;;22.05;100.00
27014;BME280;14556;52.222;4.510;2022-08-19T09:30:25;101300.69;;;22.10;100.00
27014;BME280;14556;52.222;4.510;2022-08-19T09:32:52;101313.97;;;21.96;100.00
27014;BME280;14556;52.222;4.510;2022-08-19T09:35:24;101312.31;;;21.85;100.00
27014;BME280;14556;52.222;4.510;2022-08-19T09:37:54;101326.59;;;21.70;100.00
27014;BME280;14556;52.222;4.510;2022-08-19T09:40:25;101308.50;;;21.48;100.00
27014;BME280;14556;52.222;4.510;2022-08-19T09:42:55;101328.13;;;21.50;100.00
27014;BME280;14556;52.222;4.510;2022-08-19T09:45:23;101328.69;;;21.52;100.00
27014;BME280;14556;52.222;4.510;2022-08-19T09:47:51;101328.69;;;21.52;100.00
27014;BME280;14556;52.222;4.510;2022-08-19T09:50:21;101327.88;;;21.57;100.00
27014;BME280;14556;52.222;4.510;2022-08-19T09:52:47;101340.47;;;21.68;100.00
27014;BME280;14556;52.222;4.510;2022-08-19T09:55:22;101337.97;;;21.61;100.00
27014;BME280;14556;52.222;4.510;2022-08-19T09:57:49;101337.22;;;21.66;100.00
27014;BME280;14556;52.222;4.510;2022-08-19T10:00:16;101336.78;;;21.80;100.00
27014;BME280;14556;52.222;4.510;2022-08-19T10:02:42;101337.22;;;22.09;100.00
27014;BME280;14556;52.222;4.510;2022-08-19T10:05:11;101325.31;;;22.37;100.00
27014;BME280;14556;52.222;4.510;2022-08-19T10:07:56;101334.06;;;22.49;100.00
27014;BME280;14556;52.222;4.510;2022-08-19T10:10:23;101328.34;;;22.51;100.00
27014;BME280;14556;52.222;4.510;2022-08-19T10:12:50;101334.34;;;22.48;100.00
27014;BME280;14556;52.222;4.510;2022-08-19T10:15:16;101336.81;;;22.49;100.00
27014;BME280;14556;52.222;4.510;2022-08-19T10:17:55;101337.91;;;22.53;100.00
27014;BME280;14556;52.222;4.510;2022-08-19T10:20:24;101341.16;;;22.45;100.00
27014;BME280;14556;52.222;4.510;2022-08-19T10:22:51;101337.06;;;22.42;100.00
27014;BME280;14556;52.222;4.510;2022-08-19T10:25:18;101332.13;;;22.29;100.00
27014;BME280;14556;52.222;4.510;2022-08-19T10:27:45;101335.59;;;22.19;100.00
27014;BME280;14556;52.222;4.510;2022-08-19T10:30:16;101339.41;;;22.13;100.00
27014;BME280;14556;52.222;4.510;2022-08-19T10:32:45;101338.84;;;22.16;100.00
27014;BME280;14556;52.222;4.510;2022-08-19T10:35:12;101344.88;;;22.18;100.00
27014;BME280;14556;52.222;4.510;2022-08-19T10:37:46;101338.59;;;22.22;100.00
27014;BME280;14556;52.222;4.510;2022-08-19T10:40:23;101339.19;;;22.30;100.00
27014;BME280;14556;52.222;4.510;2022-08-19T10:42:49;101329.63;;;22.17;100.00
27014;BME280;14556;52.222;4.510;2022-08-19T10:45:16;101329.63;;;22.17;100.00
27014;BME280;14556;52.222;4.510;2022-08-19T10:47:43;101339.41;;;22.13;100.00
27014;BME280;14556;52.222;4.510;2022-08-19T10:50:09;101334.19;;;22.06;100.00
27014;BME280;14556;52.222;4.510;2022-08-19T10:52:55;101339.34;;;22.02;100.00
27014;BME280;14556;52.222;4.510;2022-08-19T10:55:23;101329.53;;;21.96;100.00
27014;BME280;14556;52.222;4.510;2022-08-19T10:58:13;101342.34;;;22.01;100.00
27014;BME280;14556;52.222;4.510;2022-08-19T11:00:41;101337.16;;;21.99;100.00
27014;BME280;14556;52.222;4.510;2022-08-19T11:03:09;101337.44;;;22.03;100.00
27014;BME280;14556;52.222;4.510;2022-08-19T11:05:36;101338.53;;;22.07;100.00
27014;BME280;14556;52.222;4.510;2022-08-19T11:08:06;101336.09;;;22.10;100.00
27014;BME280;14556;52.222;4.510;2022-08-19T11:10:50;101336.13;;;22.16;100.00
27014;BME280;14556;52.222;4.510;2022-08-19T11:13:17;101330.16;;;22.24;100.00
27014;BME280;14556;52.222;4.510;2022-08-19T11:15:43;101329.41;;;22.34;100.00
27014;BME280;14556;52.222;4.510;2022-08-19T11:18:12;101334.88;;;22.39;100.00
27014;BME280;14556;52.222;4.510;2022-08-19T11:20:38;101334.94;;;22.60;100.00
27014;BME280;14556;52.222;4.510;2022-08-19T11:23:05;101332.00;;;22.72;100.00
27014;BME280;14556;52.222;4.510;2022-08-19T11:25:31;101325.44;;;22.73;100.00
27014;BME280;14556;52.222;4.510;2022-08-19T11:27:58;101326.53;;;22.67;100.00
27014;BME280;14556;52.222;4.510;2022-08-19T11:30:24;101336.25;;;22.52;100.00
27014;BME280;14556;52.222;4.510;2022-08-19T11:32:51;101334.34;;;22.48;100.00
27014;BME280;14556;52.222;4.510;2022-08-19T11:35:17;101335.16;;;22.43;100.00
27014;BME280;14556;52.222;4.510;2022-08-19T11:37:46;101333.75;;;22.35;100.00
27014;BME280;14556;52.222;4.510;2022-08-19T11:40:13;101333.75;;;22.30;100.00
27014;BME280;14556;52.222;4.510;2022-08-19T11:42:40;101343.31;;;22.32;100.00
27014;BME280;14556;52.222;4.510;2022-08-19T11:45:24;101334.31;;;22.32;100.00
27014;BME280;14556;52.222;4.510;2022-08-19T11:47:50;101334.88;;;22.44;100.00
27014;BME280;14556;52.222;4.510;2022-08-19T11:50:17;101340.09;;;22.51;100.00
27014;BME280;14556;52.222;4.510;2022-08-19T11:52:44;101344.44;;;22.52;100.00
27014;BME280;14556;52.222;4.510;2022-08-19T11:55:13;101332.19;;;22.55;100.00
27014;BME280;14556;52.222;4.510;2022-08-19T11:57:41;101335.53;;;22.62;100.00
27014;BME280;14556;52.222;4.510;2022-08-19T12:00:10;101336.88;;;22.70;100.00
27014;BME280;14556;52.222;4.510;2022-08-19T12:02:39;101338.56;;;22.76;100.00
27014;BME280;14556;52.222;4.510;2022-08-19T12:05:06;101332.56;;;22.85;100.00
27014;BME280;14556;52.222;4.510;2022-08-19T12:07:38;101338.84;;;22.90;100.00
27014;BME280;14556;52.222;4.510;2022-08-19T12:10:06;101321.66;;;22.85;100.00
27014;BME280;14556;52.222;4.510;2022-08-19T12:12:33;101335.56;;;22.83;100.00
27014;BME280;14556;52.222;4.510;2022-08-19T12:15:00;101339.63;;;22.86;100.00
27014;BME280;14556;52.222;4.510;2022-08-19T12:17:26;101348.38;;;22.82;100.00
27014;BME280;14556;52.222;4.510;2022-08-19T12:19:53;101343.72;;;22.78;100.00
27014;BME280;14556;52.222;4.510;2022-08-19T12:22:20;101334.72;;;22.72;100.00
27014;BME280;14556;52.222;4.510;2022-08-19T12:24:47;101332.53;;;22.74;100.00
27014;BME280;14556;52.222;4.510;2022-08-19T12:27:17;101328.44;;;22.82;100.00
27014;BME280;14556;52.222;4.510;2022-08-19T12:30:04;101323.84;;;22.88;100.00
27014;BME280;14556;52.222;4.510;2022-08-19T12:32:31;101324.94;;;22.97;100.00
27014;BME280;14556;52.222;4.510;2022-08-19T12:34:57;101327.69;;;23.02;100.00
27014;BME280;14556;52.222;4.510;2022-08-19T12:37:25;101329.31;;;23.09;100.00
27014;BME280;14556;52.222;4.510;2022-08-19T12:39:52;101320.56;;;23.12;100.00
27014;BME280;14556;52.222;4.510;2022-08-19T12:42:18;101327.69;;;23.18;100.00
27014;BME280;14556;52.222;4.510;2022-08-19T12:44:45;101323.03;;;23.29;100.00
27014;BME280;14556;52.222;4.510;2022-08-19T12:47:13;101330.41;;;23.28;100.00
27014;BME280;14556;52.222;4.510;2022-08-19T12:49:45;101328.50;;;23.24;100.00
27014;BME280;14556;52.222;4.510;2022-08-19T12:52:23;101319.22;;;23.19;100.00
27014;BME280;14556;52.222;4.510;2022-08-19T12:54:52;101322.78;;;23.20;100.00
27014;BME280;14556;52.222;4.510;2022-08-19T12:57:25;101325.50;;;23.15;100.00
27014;BME280;14556;52.222;4.510;2022-08-19T13:00:08;101321.13;;;23.14;100.00
27014;BME280;14556;52.222;4.510;2022-08-19T13:02:41;101323.56;;;23.15;100.00
27014;BME280;14556;52.222;4.510;2022-08-19T13:05:12;101331.22;;;23.13;100.00
27014;BME280;14556;52.222;4.510;2022-08-19T13:07:40;101325.78;;;23.13;100.00